المنامة, البحرين

02:53 PM AST on êèنêè 03, 2015 (GMT +0300)
Bahrain International | | Change Station
CLOSE
Current Station
Airport
Location: Manama,
Elevation: 7 ft
Nearby Weather Stations

Elev 7 ft 26.27 °N, 50.63 °E | Updated 53 minutes ago

Clear
صافية
97 °F
Feels Like 110 °F
N
10
ريح متغير ريح from شرق

هذا اليوم
High -- | Low -- °F
--% Chance of Precip.
Yesterday
High -- | Low -- °F
Precip. -- في
4:49 AM 6:33 PM
بدر, 97% visible
الضغط 29.53 في
وضوح الرؤية -9999.0 أميال
سحابات
مؤشر الحرارة 110 °F
نقطة الندى 75 °F
الرطوبة 50%
Rainfall 0.00 في
عمق الثلج Not available.
الأشعة فوق البنفسجية Not available.
Pollen Not available.
جودة الهواء Not available.
Flu Activity Not available.
METAR OBBI 031100Z 09009KT CAVOK 36/24 Q1000 NOSIG

More Conditions Fewer Conditions

الضغط 29.53 في
وضوح الرؤية -9999.0 أميال
سحابات
مؤشر الحرارة 110 °F
نقطة الندى 75 °F
الرطوبة 50%
Rainfall 0.00 في
عمق الثلج Not available.
الأشعة فوق البنفسجية Not available.
Pollen Not available.
جودة الهواء Not available.
Flu Activity Not available.
METAR OBBI 031100Z 09009KT CAVOK 36/24 Q1000 NOSIG

More Conditions Fewer Conditions

10-Day Weather Forecast

×

Almanac

علم الفلك

Jul. 03, 2015 Rise Set
Actual Time
Civil Twilight
Nautical Twilight
Astronomical Twilight
قمر
Length Of Visible Light
طول الیوم
Tomorrow will be .
, % of the Moon is Illuminated

Today's Extremes

Country Highs Country Lows

Community

WunderPhotos

Upload Photos

1,834,656 photos uploaded!

WunderBlogs® & News

Nearby

جودة الهواء

  جودة الهواء AQ Index Pollutant
Not available.

عمق الثلج

Station Depth Elevation

Earthquake Activity

City Distance Mag. Time & Date
Minimum magnitude displayed is 2.5.

Coastal Water Temperatures

مكان درجات الحرارة

Stations

Nearby Weather Stations

Station Location الحرارة رياح باردة نقطة الندى الرطوبة ريح Precip. Elev تحديث Type